Terminal Aerodrome Forecast
Issued by NWS

Home | Current Version | Previous Version | Graphics & Text | Print | Product List | Glossary On
Versions: 1 2 3 4 5 6 7 8 9 10 11 12 13 14
000
FTUS45 KGGW 151722
TAFOLF
TAF
KOLF 151722Z 1518/1618 26014KT P6SM SKC
     FM160000 24005KT P6SM SKC
     FM161300 24007KT P6SM FEW200 WS020/28035KT
     FM161600 26012KT P6SM FEW200=

USA.gov is the U.S. government's official web portal to all federal, state and local government web resources and services.